Time;durP1;ratioP1;P1;durP2;ratioP2;P2;SDS_P1;SDS_P2;PMS_P1;PMS_P2;Temp;Humidity;BMP_temperature;BMP_pressure;BME280_temperature;BME280_humidity;BME280_pressure;Samples;Min_cycle;Max_cycle;Signal;HPM_P1;HPM_P2
2022/12/14 08:07:39;;;;;;;18.70;7.70;;;;;;;-3.84;100.00;100993.41;1823407;77;28591;-88
2022/12/14 08:10:24;;;;;;;20.45;7.33;;;;;;;-3.81;100.00;100991.72;1799284;78;21046;-89
2022/12/14 08:13:08;;;;;;;17.95;7.37;;;;;;;-3.71;100.00;101000.36;1777898;80;20985;-88
2022/12/14 08:15:54;;;;;;;13.18;6.45;;;;;;;-3.56;100.00;101001.33;1777133;80;20990;-89
2022/12/14 08:18:38;;;;;;;24.82;12.68;;;;;;;-3.43;100.00;101003.44;1699095;83;21076;-88
2022/12/14 08:21:24;;;;;;;15.38;7.40;;;;;;;-3.20;100.00;101002.15;1745311;81;21502;-87
2022/12/14 08:24:10;;;;;;;16.77;7.78;;;;;;;-3.11;100.00;101005.11;1737015;81;21098;-88
2022/12/14 08:26:55;;;;;;;15.63;6.75;;;;;;;-3.03;100.00;101005.05;1727937;79;20975;-88
2022/12/14 08:29:41;;;;;;;12.80;7.08;;;;;;;-2.96;100.00;101005.19;1737732;81;20956;-89
2022/12/14 08:32:26;;;;;;;12.05;6.62;;;;;;;-2.89;100.00;101006.14;1743924;81;20967;-87
2022/12/14 08:35:10;;;;;;;16.60;6.72;;;;;;;-2.81;100.00;101004.74;1763598;79;21023;-90
2022/12/14 08:37:56;;;;;;;14.85;7.40;;;;;;;-2.70;100.00;101010.17;1706224;82;20994;-89
2022/12/14 08:40:41;;;;;;;12.65;6.72;;;;;;;-2.63;100.00;101009.78;1758226;79;21560;-89
2022/12/14 08:43:26;;;;;;;11.35;5.83;;;;;;;-2.55;100.00;101010.73;1764310;81;21010;-88
2022/12/14 08:46:10;;;;;;;14.05;7.15;;;;;;;-2.51;100.00;101008.86;1758732;81;21007;-88
2022/12/14 08:48:55;;;;;;;14.20;5.97;;;;;;;-2.46;100.00;101017.70;1750486;81;20979;-88
2022/12/14 08:51:40;;;;;;;16.95;7.75;;;;;;;-2.42;100.00;101006.97;1734759;81;21007;-87
2022/12/14 08:54:25;;;;;;;18.00;7.42;;;;;;;-2.41;100.00;101019.33;1735555;79;20986;-87
2022/12/14 08:57:09;;;;;;;17.70;8.30;;;;;;;-2.37;100.00;101013.95;1744380;81;21023;-88
2022/12/14 08:59:54;;;;;;;14.93;7.55;;;;;;;-2.32;100.00;101023.60;1744821;79;20996;-88
2022/12/14 09:02:39;;;;;;;16.32;7.90;;;;;;;-2.29;100.00;101017.88;1693122;84;21054;-89
2022/12/14 09:05:24;;;;;;;13.85;6.42;;;;;;;-2.24;100.00;101021.36;1710489;82;21010;-89
2022/12/14 09:08:08;;;;;;;14.63;6.85;;;;;;;-2.23;100.00;101014.46;1715518;82;21011;-89
2022/12/14 09:10:53;;;;;;;14.65;7.35;;;;;;;-2.20;100.00;101011.44;1682236;83;21664;-89
2022/12/14 09:13:40;;;;;;;15.15;7.37;;;;;;;-2.09;100.00;101009.34;1710843;83;21516;-88
2022/12/14 09:16:25;;;;;;;16.62;7.12;;;;;;;-2.07;100.00;101011.33;1711666;83;21054;-88
2022/12/14 09:19:09;;;;;;;23.95;7.58;;;;;;;-2.01;100.00;101010.58;1707424;83;21217;-88
2022/12/14 09:21:54;;;;;;;14.10;6.10;;;;;;;-2.03;100.00;101009.92;1682595;84;21030;-89
2022/12/14 09:24:38;;;;;;;13.60;5.83;;;;;;;-2.06;100.00;101011.64;1689481;82;21094;-90
2022/12/14 09:27:23;;;;;;;11.78;5.97;;;;;;;-2.05;100.00;101015.48;1682770;83;21014;-89
2022/12/14 09:30:08;;;;;;;13.70;6.90;;;;;;;-2.04;100.00;101020.33;1697351;83;21007;-87
2022/12/14 09:32:53;;;;;;;15.32;6.30;;;;;;;-2.07;100.00;101027.39;1701598;83;21006;-90
2022/12/14 09:35:37;;;;;;;14.80;6.87;;;;;;;-2.06;100.00;101028.53;1688928;83;21500;-89
2022/12/14 09:38:22;;;;;;;15.03;6.53;;;;;;;-2.00;100.00;101028.33;1687175;83;21022;-87
2022/12/14 09:41:24;;;;;;;9.35;5.22;;;;;;;-1.88;100.00;101026.87;1687257;84;21033;-89
2022/12/14 09:44:24;;;;;;;13.35;6.00;;;;;;;-1.79;100.00;101028.42;1685218;83;21184;-87
2022/12/14 09:47:25;;;;;;;15.88;6.22;;;;;;;-1.74;100.00;101026.02;1692490;83;21070;-89
2022/12/14 09:50:14;;;;;;;14.43;6.60;;;;;;;-1.72;100.00;101031.72;1701558;83;21496;-88
2022/12/14 09:53:03;;;;;;;13.93;7.45;;;;;;;-1.76;100.00;101037.42;1699875;83;20994;-90
2022/12/14 09:55:54;;;;;;;18.00;7.85;;;;;;;-1.76;100.00;101035.27;1703587;83;21055;-88
2022/12/14 09:58:39;;;;;;;12.28;6.25;;;;;;;-1.72;100.00;101035.74;1694888;83;21500;-86
2022/12/14 10:01:46;;;;;;;15.63;7.55;;;;;;;-1.64;100.00;101035.12;1658778;84;21030;-86
2022/12/14 10:05:13;;;;;;;15.48;7.97;;;;;;;-1.52;100.00;101043.55;1679972;83;21054;-86
2022/12/14 10:08:12;;;;;;;15.00;5.92;;;;;;;-1.40;100.00;101027.31;1714965;81;21009;-86
2022/12/14 10:11:19;;;;;;;18.35;9.98;;;;;;;-1.33;100.00;101032.25;1695351;83;21005;-86
2022/12/14 10:14:33;;;;;;;12.73;6.15;;;;;;;-1.25;100.00;101033.17;1697739;83;21041;-87
2022/12/14 10:17:40;;;;;;;14.20;7.15;;;;;;;-1.16;100.00;101037.42;1706931;83;21046;-87
2022/12/14 10:20:50;;;;;;;16.25;6.70;;;;;;;-1.14;100.00;101042.06;1719693;83;21053;-86
2022/12/14 10:23:34;;;;;;;13.83;6.53;;;;;;;-1.15;100.00;101044.44;1706261;83;21101;-86
2022/12/14 10:26:19;;;;;;;15.85;6.87;;;;;;;-1.06;100.00;101039.29;1696350;83;21018;-87
2022/12/14 10:29:12;;;;;;;15.00;6.47;;;;;;;-1.03;100.00;101044.27;1706976;81;21591;-87
2022/12/14 10:32:04;;;;;;;;;;;;;;;-1.06;100.00;101042.45;1707982;82;21049;-87
2022/12/14 10:34:50;;;;;;;12.28;5.70;;;;;;;-0.99;100.00;101050.94;1716612;82;21665;-87
2022/12/14 10:37:36;;;;;;;15.75;7.30;;;;;;;-1.00;100.00;101054.62;1701105;83;21099;-86
2022/12/14 10:40:29;;;;;;;11.38;6.87;;;;;;;-1.04;100.00;101050.64;1710548;81;21092;-87
2022/12/14 10:43:34;;;;;;;;;;;;;;;-1.11;100.00;101053.78;1719013;83;21556;-87
2022/12/14 10:46:56;;;;;;;12.88;6.20;;;;;;;-1.24;100.00;101052.25;1722553;83;20168;-86
2022/12/14 10:50:22;;;;;;;15.85;7.22;;;;;;;-1.32;100.00;101058.03;1701204;81;21074;-86
2022/12/14 10:53:11;;;;;;;14.70;6.50;;;;;;;-1.39;100.00;101071.86;1698539;83;21034;-87
2022/12/14 10:55:59;;;;;;;14.38;6.85;;;;;;;-1.43;100.00;101074.61;1706271;81;21066;-88
2022/12/14 10:58:43;;;;;;;14.00;6.60;;;;;;;-1.47;100.00;101072.48;1695508;83;21085;-86
2022/12/14 11:01:30;;;;;;;15.25;7.20;;;;;;;-1.48;100.00;101073.48;1694179;83;21408;-87
2022/12/14 11:04:38;;;;;;;13.32;6.53;;;;;;;-1.52;100.00;101077.05;1702353;84;21001;-87
2022/12/14 11:07:27;;;;;;;13.70;7.20;;;;;;;-1.48;100.00;101077.50;1697530;83;21509;-87
2022/12/14 11:10:21;;;;;;;16.27;7.42;;;;;;;-1.39;100.00;101077.73;1695014;83;21017;-87
2022/12/14 11:13:16;;;;;;;12.98;7.10;;;;;;;-1.30;100.00;101081.48;1702249;83;21038;-87
2022/12/14 11:16:17;;;;;;;14.83;7.78;;;;;;;-1.24;100.00;101078.55;1714545;81;21074;-87
2022/12/14 11:19:04;;;;;;;18.80;7.62;;;;;;;-1.19;100.00;101068.61;1719411;83;21710;-87
2022/12/14 11:21:50;;;;;;;15.75;6.60;;;;;;;-1.20;100.00;101068.30;1707636;82;20983;-86
2022/12/14 11:24:37;;;;;;;15.05;6.53;;;;;;;-1.23;100.00;101071.36;1729770;81;21027;-88
2022/12/14 11:27:21;;;;;;;15.45;6.75;;;;;;;-1.27;100.00;101076.77;1686051;82;20994;-88
2022/12/14 11:30:07;;;;;;;14.03;6.12;;;;;;;-1.32;100.00;101072.78;1734602;81;21528;-86
2022/12/14 11:32:52;;;;;;;14.13;6.85;;;;;;;-1.41;100.00;101069.90;1699282;83;21564;-87
2022/12/14 11:35:36;;;;;;;13.75;6.45;;;;;;;-1.49;100.00;101070.48;1718030;83;21026;-86
2022/12/14 11:38:21;;;;;;;17.50;7.22;;;;;;;-1.60;100.00;101073.95;1722180;83;21054;-87
2022/12/14 11:41:06;;;;;;;15.65;7.45;;;;;;;-1.62;100.00;101073.30;1713180;81;21042;-88
2022/12/14 11:44:16;;;;;;;15.88;6.95;;;;;;;-1.60;100.00;101072.61;1715696;83;21057;-88
2022/12/14 11:47:15;;;;;;;17.50;7.70;;;;;;;-1.56;100.00;101074.41;1697563;84;21073;-87
2022/12/14 11:50:01;;;;;;;15.48;6.92;;;;;;;-1.50;100.00;101085.74;1719249;81;21026;-88
2022/12/14 11:52:46;;;;;;;16.23;6.45;;;;;;;-1.45;100.00;101087.36;1715582;82;21011;-87
2022/12/14 11:55:30;;;;;;;14.25;7.65;;;;;;;-1.43;100.00;101104.61;1710253;81;20982;-86
2022/12/14 11:58:25;;;;;;;16.73;7.10;;;;;;;-1.39;100.00;101100.02;1725310;82;21041;-87
2022/12/14 14:12:05;;;;;;;9.10;4.30;;;;;;;-4.82;100.00;101209.84;1815979;77;26010;-85
2022/12/14 14:15:09;;;;;;;22.40;7.78;;;;;;;-4.90;100.00;101212.95;1772661;80;21042;-86
2022/12/14 14:17:54;;;;;;;19.60;9.08;;;;;;;-4.92;100.00;101222.45;1767935;80;21034;-86
2022/12/14 14:20:43;;;;;;;22.35;9.33;;;;;;;-4.90;100.00;101227.61;1772298;80;20998;-86
2022/12/14 14:23:30;;;;;;;16.48;8.55;;;;;;;-4.88;100.00;101230.95;1769814;80;21086;-85
2022/12/14 14:32:36;;;;;;;15.48;7.25;;;;;;;-4.65;100.00;101239.22;1845068;77;27323;-86
2022/12/14 14:35:37;;;;;;;14.50;7.08;;;;;;;-4.63;100.00;101238.56;1775278;78;20995;-86
2022/12/14 14:38:26;;;;;;;15.08;6.78;;;;;;;-4.57;100.00;101247.27;1749019;79;21043;-86
2022/12/14 14:41:20;;;;;;;17.65;9.43;;;;;;;-4.48;100.00;101247.62;1756041;80;21003;-87
2022/12/14 14:44:27;;;;;;;19.87;9.93;;;;;;;-4.39;100.00;101245.33;1689271;82;21063;-85
2022/12/14 14:47:29;;;;;;;19.98;9.25;;;;;;;-4.31;100.00;101251.18;1731797;80;21865;-87
2022/12/14 14:50:20;;;;;;;24.72;14.15;;;;;;;-4.24;100.00;101250.04;1754954;79;21042;-86
2022/12/14 14:53:27;;;;;;;21.45;11.53;;;;;;;-4.17;100.00;101250.55;1761432;80;20982;-86
2022/12/14 14:56:33;;;;;;;20.27;10.40;;;;;;;-4.09;100.00;101262.26;1697200;82;20999;-86
2022/12/14 14:59:23;;;;;;;24.67;12.00;;;;;;;-3.99;100.00;101249.08;1759001;79;20999;-84
2022/12/14 15:02:30;;;;;;;22.27;12.00;;;;;;;-3.93;100.00;101250.28;1693260;82;21003;-84
2022/12/14 15:05:19;;;;;;;29.75;13.68;;;;;;;-3.89;100.00;101245.75;1672301;82;21145;-84
2022/12/14 15:08:04;;;;;;;30.97;14.13;;;;;;;-3.84;100.00;101247.11;1738507;80;21046;-84
2022/12/14 15:10:50;;;;;;;26.23;13.30;;;;;;;-3.83;100.00;101245.62;1701535;82;21011;-84
2022/12/14 15:14:13;;;;;;;30.92;16.85;;;;;;;-3.84;100.00;101249.77;1693234;82;21439;-85
2022/12/14 15:17:00;;;;;;;45.03;24.85;;;;;;;-3.82;100.00;101246.45;1747424;79;21022;-85
2022/12/14 15:19:56;;;;;;;31.77;15.23;;;;;;;-3.82;100.00;101251.78;1688106;83;21441;-84
2022/12/14 15:22:41;;;;;;;30.27;15.08;;;;;;;-3.82;100.00;101252.62;1669838;84;21052;-85
2022/12/14 15:25:28;;;;;;;27.55;14.43;;;;;;;-3.85;100.00;101250.79;1697823;81;21529;-85
2022/12/14 15:28:16;;;;;;;48.02;20.72;;;;;;;-3.89;100.00;101253.77;1757728;80;20991;-85
2022/12/14 15:31:01;;;;;;;79.95;28.23;;;;;;;-3.89;100.00;101259.11;1734130;80;21002;-85
2022/12/14 15:33:46;;;;;;;40.52;20.65;;;;;;;-3.87;100.00;101254.13;1757115;80;21058;-85
2022/12/14 15:36:36;;;;;;;37.88;17.80;;;;;;;-3.86;100.00;101253.11;1740004;80;21031;-85
2022/12/14 15:39:36;;;;;;;54.42;21.90;;;;;;;-3.89;100.00;101255.10;1733999;80;21008;-85
2022/12/14 15:42:20;;;;;;;114.42;42.13;;;;;;;-3.91;100.00;101259.80;1733336;82;21001;-85
2022/12/14 15:45:11;;;;;;;36.63;18.15;;;;;;;-3.92;100.00;101248.77;1704980;83;21389;-86
2022/12/14 15:47:57;;;;;;;37.23;18.07;;;;;;;-3.98;100.00;101249.44;1702428;82;21043;-86
2022/12/14 15:50:43;;;;;;;46.37;20.37;;;;;;;-4.00;100.00;101253.27;1734203;80;20993;-85
2022/12/14 15:53:41;;;;;;;47.27;18.90;;;;;;;-3.98;100.00;101260.59;1733865;80;21007;-86
2022/12/14 15:56:34;;;;;;;32.17;15.53;;;;;;;-3.99;100.00;101254.42;1693990;83;21043;-86
2022/12/14 15:59:29;;;;;;;32.73;16.25;;;;;;;-4.00;100.00;101258.61;1700704;83;21019;-85
2022/12/14 16:02:25;;;;;;;41.45;17.02;;;;;;;-4.04;100.00;101262.09;1720405;82;21007;-85
2022/12/14 16:05:15;;;;;;;32.08;14.28;;;;;;;-4.06;100.00;101269.42;1696550;82;21051;-85
2022/12/14 16:07:59;;;;;;;31.23;16.15;;;;;;;-3.99;100.00;101272.28;1698650;82;21019;-86
2022/12/14 16:10:45;;;;;;;44.55;17.37;;;;;;;-3.97;100.00;101268.45;1684698;83;21084;-87
2022/12/14 16:13:39;;;;;;;32.55;16.02;;;;;;;-4.00;100.00;101274.13;1698684;82;21027;-86
2022/12/14 16:16:23;;;;;;;33.75;16.67;;;;;;;-3.98;100.00;101268.13;1713249;82;21018;-86
2022/12/14 16:19:08;;;;;;;37.23;15.75;;;;;;;-3.90;100.00;101254.78;1695659;83;21208;-87
2022/12/14 16:22:24;;;;;;;38.50;17.00;;;;;;;-3.87;100.00;101246.94;1741451;79;20999;-86
2022/12/14 16:25:15;;;;;;;52.08;20.10;;;;;;;-3.84;100.00;101256.45;1744862;79;21038;-87
2022/12/14 16:28:27;;;;;;;31.00;15.75;;;;;;;-3.84;100.00;101265.30;1732784;79;21368;-87
2022/12/14 16:31:21;;;;;;;32.33;14.93;;;;;;;-3.87;100.00;101277.65;1693408;82;21023;-86
2022/12/14 16:34:15;;;;;;;31.68;14.00;;;;;;;-3.90;100.00;101284.16;1727858;82;21624;-87
2022/12/14 16:37:02;;;;;;;36.55;15.13;;;;;;;-3.84;100.00;101281.83;1762174;79;20984;-87
2022/12/14 16:39:48;;;;;;;26.02;14.83;;;;;;;-3.86;100.00;101291.33;1742592;79;20984;-87
2022/12/14 16:42:34;;;;;;;29.95;13.60;;;;;;;-3.84;100.00;101288.50;1704546;83;21047;-87
2022/12/14 16:45:36;;;;;;;28.80;14.50;;;;;;;-3.85;100.00;101293.52;1652053;83;21090;-87
2022/12/14 16:48:23;;;;;;;23.67;9.90;;;;;;;-3.83;100.00;101297.69;1689168;83;21474;-87
2022/12/14 16:51:26;;;;;;;27.00;12.25;;;;;;;-3.89;100.00;101308.51;1704127;82;21486;-87
2022/12/14 16:54:25;;;;;;;34.08;13.95;;;;;;;-3.84;100.00;101309.36;1756517;79;21035;-87
2022/12/14 16:57:21;;;;;;;32.17;15.58;;;;;;;-3.83;100.00;101311.52;1699709;83;21054;-86
2022/12/14 17:00:11;;;;;;;43.58;21.48;;;;;;;-3.72;100.00;101316.06;1763539;79;21067;-86
2022/12/14 17:03:05;;;;;;;31.33;14.10;;;;;;;-3.71;100.00;101317.75;1701061;83;21111;-87
2022/12/14 17:05:53;;;;;;;32.13;14.38;;;;;;;-3.70;100.00;101323.92;1695672;81;21460;-87
2022/12/14 17:08:37;;;;;;;33.95;15.55;;;;;;;-3.72;100.00;101313.89;1763809;80;21034;-87
2022/12/14 17:11:22;;;;;;;45.40;18.40;;;;;;;-3.71;100.00;101316.89;1763837;81;21457;-88
2022/12/14 17:14:07;;;;;;;41.50;21.27;;;;;;;-3.70;100.00;101314.57;1762458;79;21094;-86
2022/12/14 17:17:00;;;;;;;33.08;14.00;;;;;;;-3.70;100.00;101307.89;1697927;83;21007;-87
2022/12/14 17:19:45;;;;;;;56.28;19.70;;;;;;;-3.71;100.00;101319.09;1703922;82;20987;-87
2022/12/14 17:22:31;;;;;;;38.55;15.10;;;;;;;-3.67;100.00;101321.74;1706311;82;21063;-88
2022/12/14 17:25:16;;;;;;;40.10;15.18;;;;;;;-3.67;100.00;101316.40;1705580;82;21063;-87
2022/12/14 17:28:00;;;;;;;38.23;16.45;;;;;;;-3.64;100.00;101327.77;1709900;82;21089;-86
2022/12/14 17:30:45;;;;;;;47.67;20.15;;;;;;;-3.62;100.00;101313.74;1752018;79;21043;-86
2022/12/14 17:33:30;;;;;;;38.20;18.82;;;;;;;-3.61;100.00;101314.06;1674438;83;21936;-86
2022/12/14 17:36:14;;;;;;;50.55;21.23;;;;;;;-3.62;100.00;101314.58;1693152;82;20990;-87
2022/12/14 17:38:59;;;;;;;49.73;22.07;;;;;;;-3.57;100.00;101325.59;1684489;82;21022;-86
2022/12/14 17:41:44;;;;;;;35.63;17.12;;;;;;;-3.57;100.00;101321.59;1741386;80;21503;-87
2022/12/14 17:44:29;;;;;;;31.17;13.55;;;;;;;-3.55;100.00;101324.11;1762472;79;21026;-88
2022/12/14 17:47:13;;;;;;;30.32;14.58;;;;;;;-3.52;100.00;101322.44;1763089;79;20999;-87
2022/12/14 17:49:58;;;;;;;31.50;14.70;;;;;;;-3.50;100.00;101321.27;1747537;80;20991;-87
2022/12/14 17:52:43;;;;;;;45.17;20.48;;;;;;;-3.48;100.00;101317.93;1686670;82;21406;-87
2022/12/14 17:55:28;;;;;;;27.05;12.70;;;;;;;-3.50;100.00;101323.94;1693449;83;21022;-87
2022/12/14 17:58:13;;;;;;;28.92;13.62;;;;;;;-3.53;100.00;101314.92;1684265;83;21015;-87
2022/12/14 20:07:02;;;;;;;24.07;11.87;;;;;;;-4.68;100.00;101273.71;1801238;77;24101;-91
2022/12/14 20:09:47;;;;;;;29.60;14.28;;;;;;;-4.73;100.00;101266.69;1782403;77;20994;-92
2022/12/14 20:12:33;;;;;;;41.75;18.20;;;;;;;-4.73;100.00;101264.53;1751510;79;21815;-91
2022/12/14 20:15:17;;;;;;;31.10;14.30;;;;;;;-4.69;100.00;101264.05;1736534;80;20978;-92
2022/12/14 20:18:03;;;;;;;21.60;11.35;;;;;;;-4.66;100.00;101265.56;1754500;81;21467;-90
2022/12/14 20:20:48;;;;;;;26.35;11.18;;;;;;;-4.63;100.00;101270.57;1708317;83;21071;-91
2022/12/14 20:23:36;;;;;;;20.97;10.08;;;;;;;-4.58;100.00;101273.59;1698843;83;22102;-92
2022/12/14 20:26:21;;;;;;;28.25;11.85;;;;;;;-4.53;100.00;101269.94;1703072;80;20987;-93
2022/12/14 20:29:06;;;;;;;22.90;10.50;;;;;;;-4.35;100.00;101270.70;1734316;81;21142;-89
2022/12/14 20:31:56;;;;;;;20.37;10.45;;;;;;;-4.27;100.00;101262.38;1732954;81;20983;-88
2022/12/14 20:34:41;;;;;;;18.48;9.20;;;;;;;-4.20;100.00;101266.08;1741346;81;20991;-89
2022/12/14 20:37:26;;;;;;;29.77;12.05;;;;;;;-4.17;100.00;101261.73;1750007;81;21003;-89
2022/12/14 20:40:12;;;;;;;20.70;10.35;;;;;;;-4.14;100.00;101265.41;1743644;80;21043;-90
2022/12/14 20:43:05;;;;;;;25.10;10.35;;;;;;;-4.12;100.00;101272.25;1731606;81;21034;-89
2022/12/14 20:45:47;;;;;;;24.72;10.68;;;;;;;-4.11;100.00;101264.57;1687471;83;21063;-90
2022/12/14 20:48:31;;;;;;;20.92;9.63;;;;;;;-4.11;100.00;101259.73;1747324;81;21465;-91
2022/12/14 20:51:16;;;;;;;20.20;8.23;;;;;;;-4.12;100.00;101259.41;1732732;80;21034;-90
2022/12/14 20:54:01;;;;;;;18.98;9.33;;;;;;;-4.16;100.00;101257.55;1752850;81;21031;-87
2022/12/14 20:56:46;;;;;;;20.85;10.45;;;;;;;-4.17;100.00;101264.41;1694253;83;21454;-88
2022/12/14 20:59:31;;;;;;;21.37;8.68;;;;;;;-4.14;100.00;101260.07;1747501;81;21026;-88
2022/12/14 21:02:16;;;;;;;20.82;9.63;;;;;;;-4.17;100.00;101268.41;1686320;82;21043;-88
2022/12/14 21:05:00;;;;;;;21.00;9.35;;;;;;;-4.18;100.00;101265.39;1698037;83;21628;-88
2022/12/14 21:07:46;;;;;;;18.55;8.88;;;;;;;-4.18;100.00;101267.58;1702364;83;21031;-89
2022/12/14 21:10:30;;;;;;;20.90;8.80;;;;;;;-4.20;100.00;101270.08;1698879;82;21097;-89
2022/12/14 21:13:16;;;;;;;21.93;9.05;;;;;;;-4.20;100.00;101270.08;1696197;82;21512;-89
2022/12/14 21:16:01;;;;;;;20.80;8.80;;;;;;;-4.20;100.00;101266.08;1683607;82;21026;-88
2022/12/14 21:18:47;;;;;;;16.70;7.60;;;;;;;-4.17;100.00;101265.74;1706458;82;21050;-88
2022/12/14 21:21:32;;;;;;;18.35;8.70;;;;;;;-4.18;100.00;101273.39;1761439;80;20995;-90
2022/12/14 21:24:18;;;;;;;19.57;9.20;;;;;;;-4.16;100.00;101275.41;1744477;81;21062;-90
2022/12/14 21:27:03;;;;;;;15.88;8.33;;;;;;;-4.18;100.00;101268.92;1741757;81;20991;-89
2022/12/14 21:29:48;;;;;;;18.62;8.73;;;;;;;-4.21;100.00;101263.05;1738015;80;21001;-89
2022/12/14 21:32:35;;;;;;;14.18;7.45;;;;;;;-4.23;100.00;101251.70;1736847;80;21070;-89
2022/12/14 21:35:20;;;;;;;16.77;8.08;;;;;;;-4.29;100.00;101258.53;1736121;81;21438;-89
2022/12/14 21:38:04;;;;;;;15.60;7.08;;;;;;;-4.41;100.00;101259.31;1746463;81;21017;-89
2022/12/14 21:43:57;;;;;;;22.87;9.35;;;;;;;-4.57;100.00;101256.11;1759812;80;21030;-89
2022/12/14 21:46:42;;;;;;;17.30;7.55;;;;;;;-4.61;100.00;101259.25;1761149;81;21003;-89
2022/12/14 21:49:27;;;;;;;19.27;8.03;;;;;;;-4.68;100.00;101249.70;1687645;83;21632;-90
2022/12/14 21:52:17;;;;;;;22.58;10.75;;;;;;;-4.73;100.00;101244.52;1703314;83;20975;-89
2022/12/14 21:55:02;;;;;;;23.35;14.03;;;;;;;-4.78;100.00;101239.67;1696653;83;21054;-89
2022/12/14 22:00:52;;;;;;;20.17;12.03;;;;;;;-4.86;100.00;101228.97;1720928;82;21050;-91
2022/12/14 22:03:37;;;;;;;24.12;13.13;;;;;;;-4.94;100.00;101220.44;1684361;83;21011;-92
2022/12/14 22:06:22;;;;;;;24.87;14.70;;;;;;;-4.98;100.00;101216.41;1697668;83;21027;-92
2022/12/14 22:09:06;;;;;;;24.57;12.37;;;;;;;-5.02;100.00;101214.58;1689573;82;21092;-94
2022/12/14 22:11:51;;;;;;;20.15;10.32;;;;;;;-5.03;100.00;101212.88;1696391;82;21038;-92
2022/12/14 22:14:36;;;;;;;18.67;11.63;;;;;;;-5.01;100.00;101226.89;1705200;83;21037;-92
2022/12/14 22:17:26;;;;;;;28.00;14.43;;;;;;;-5.04;100.00;101231.72;1719500;83;21521;-93
2022/12/14 22:20:16;;;;;;;22.85;13.35;;;;;;;-5.01;100.00;101232.73;1701158;83;21069;-93
2022/12/14 22:23:00;;;;;;;22.00;11.65;;;;;;;-5.01;100.00;101223.40;1708919;83;21074;-93
2022/12/14 22:25:49;;;;;;;19.73;9.88;;;;;;;-5.00;100.00;101212.56;1710537;82;21057;-91
2022/12/14 22:28:33;;;;;;;18.00;8.15;;;;;;;-4.96;100.00;101211.77;1711093;83;20991;-93
2022/12/14 22:31:19;;;;;;;17.15;8.73;;;;;;;-4.91;100.00;101217.45;1696135;84;20990;-93
2022/12/14 22:34:04;;;;;;;17.55;8.33;;;;;;;-4.84;100.00;101210.99;1721234;82;21513;-93
2022/12/14 22:36:50;;;;;;;12.60;6.30;;;;;;;-4.76;100.00;101215.02;1724190;83;21042;-90
2022/12/14 22:39:34;;;;;;;15.48;5.87;;;;;;;-4.65;100.00;101215.21;1718965;82;21061;-92
2022/12/14 22:42:19;;;;;;;12.80;5.78;;;;;;;-4.55;100.00;101203.91;1700302;83;21040;-93
2022/12/14 22:45:05;;;;;;;11.75;6.60;;;;;;;-4.46;100.00;101208.28;1703264;83;21002;-91
2022/12/14 22:47:50;;;;;;;12.85;7.08;;;;;;;-4.35;100.00;101206.66;1724898;83;21076;-90
2022/12/14 22:50:37;;;;;;;10.20;5.08;;;;;;;-4.30;100.00;101202.64;1725167;82;21026;-93
2022/12/14 22:53:22;;;;;;;15.00;6.45;;;;;;;-4.22;100.00;101202.68;1724186;83;21837;-92
2022/12/14 22:56:29;;;;;;;8.45;5.05;;;;;;;-4.17;100.00;101201.18;1714444;82;21064;-92
2022/12/14 22:59:19;;;;;;;9.38;5.58;;;;;;;-4.12;100.00;101198.02;1695954;84;21151;-90
2022/12/14 23:02:03;;;;;;;12.98;5.92;;;;;;;-4.03;100.00;101197.52;1710077;83;21014;-93
2022/12/14 23:04:48;;;;;;;12.25;5.97;;;;;;;-3.92;100.00;101194.53;1721981;83;21058;-91
2022/12/14 23:07:33;;;;;;;14.55;5.75;;;;;;;-3.92;100.00;101182.52;1681203;83;21019;-89
